• Join FlightAware (Why Join?)
  • Login
  • US Flag 
11:04PM EDT


 

Airport Tracker/Info


-or-


 

Live Flight TrackerFlight Track Log ✈ N560PA ✈ 28-Apr-2013 ✈ KAPF - KFDK

Flight Track Log - Related Links

Times and Time Zones

All times are in EDT time to prevent confusion due to time zone crossing. See the N560PA flight status page for this flight to view local times or setup timezone preferences in your user account.

Time Position Orientation Groundspeed Altitude Reporting Facility
EDT Latitude Longitude Course Direction KTS MPH feet Rate Location/Type
11:28AM 26.1675 -81.6342 North 245 282 5,800  Level Miami Center
11:29AM 26.2342 -81.6369 358° North 179 206 9,100 2,400 Climbing Miami Center
11:30AM 26.3089 -81.6467 353° North 218 251 10,700 1,980 Climbing Miami Center
11:31AM 26.3900 -81.6569 354° North 255 293 13,100 2,220 Climbing Miami Center
11:32AM 26.7189 -81.7500 North  Level FlightAware Approximate
11:32AM 26.4753 -81.6697 352° North 285 328 15,200  Level Miami Center
11:33AM 26.8139 -81.7500 North  Level FlightAware Approximate
11:33AM 26.5478 -81.6844 350° North 295 339 17,100  Level Miami Center
11:34AM 26.6372 -81.6972 353° North 305 351 19,100 1,980 Climbing Miami Center
11:35AM 26.7247 -81.7033 356° North 311 358 21,100 2,040 Climbing Miami Center
11:36AM 26.8097 -81.7161 352° North 311 358 23,200 1,920 Climbing Miami Center
11:37AM 26.8975 -81.7128 North 311 358 25,000 1,620 Climbing Miami Center
11:38AM 26.9858 -81.6931 11° North 311 358 26,500 1,440 Climbing Miami Center
11:39AM 27.0764 -81.6689 13° North 316 364 27,900 1,380 Climbing Miami Center
11:40AM 27.1669 -81.6492 11° North 324 373 29,300 1,020 Climbing Miami Center
11:41AM 27.2678 -81.6278 11° North 324 373 30,000 300 Climbing Miami Center
11:42AM 27.3667 -81.6039 12° North 347 399 30,000  Level Miami Center
11:43AM 27.4697 -81.5800 12° North 364 419 30,000 240 Level Miami Center
11:44AM 27.5664 -81.5583 11° North 380 437 30,500 1,140 Climbing Miami Center
11:45AM 27.6669 -81.5506 North 368 423 32,300 1,800 Climbing Miami Center
11:46AM 27.7669 -81.5525 359° North 339 390 34,200 1,560 Climbing Miami Center
11:47AM 27.8442 -81.5508 North 311 358 35,500 1,140 Climbing Miami Center
11:48AM 27.9342 -81.5475 North 305 351 36,500 960 Climbing Miami Center
11:49AM 28.0194 -81.5486 359° North 299 344 37,500 900 Climbing Miami Center
11:50AM 28.1031 -81.5453 North 299 344 38,300 780 Climbing Miami Center
11:51AM 28.1867 -81.5439 North 299 344 39,100 660 Climbing Miami Center
11:52AM 28.2722 -81.5428 North 299 344 39,700 540 Climbing Miami Center
11:53AM 28.3600 -81.5417 North 299 344 40,200 540 Climbing Miami Center
11:54AM 28.4517 -81.5431 359° North 310 357 40,800 360 Climbing Miami Center
11:55AM 28.5414 -81.5422 360° North 315 362 41,000 60 Climbing Miami Center
11:56AM 28.6394 -81.5372 North 336 387 41,000  Level Jacksonville Center
11:57AM 28.7375 -81.5383 359° North 347 399 41,000  Level Jacksonville Center
11:58AM 28.8356 -81.5369 North 347 399 41,000  Level Jacksonville Center
11:59AM 28.9358 -81.5356 North 347 399 41,000  Level Jacksonville Center
12:00PM 29.0381 -81.5317 North 347 399 41,000  Level Jacksonville Center
12:01PM 29.1403 -81.5303 North 360 414 41,000  Level Jacksonville Center
12:02PM 29.2447 -81.5314 359° North 366 421 41,000  Level Jacksonville Center
12:03PM 29.3511 -81.5275 North 366 421 41,000  Level Jacksonville Center
12:04PM 29.4533 -81.5283 360° North 366 421 41,000  Level Jacksonville Center
12:05PM 29.5597 -81.5269 North 366 421 41,000  Level Jacksonville Center
12:06PM 29.6664 -81.5231 North 366 421 41,000 -60 Level Jacksonville Center
12:07PM 29.7728 -81.5214 North 366 421 40,900  Descending Jacksonville Center
12:08PM 29.8792 -81.5200 North 371 427 41,000  Climbing Jacksonville Center
12:09PM 29.9856 -81.5161 North 376 433 41,000  Level Jacksonville Center
12:10PM 30.0919 -81.5147 North 376 433 41,000  Level Jacksonville Center
12:11PM 30.1986 -81.5106 North 376 433 41,000  Level Jacksonville Center
12:12PM 30.2967 -81.5092 North 384 442 41,000  Level Jacksonville Center
12:13PM 30.4050 -81.4981 North 384 442 41,000  Level Jacksonville Center
12:14PM 30.5092 -81.4819 North 384 442 41,000  Level Jacksonville Center
12:15PM 30.6175 -81.4636 North 384 442 41,000  Level Jacksonville Center
12:16PM 30.7239 -81.4450 North 384 442 41,000  Level Jacksonville Center
12:17PM 30.8303 -81.4289 North 384 442 41,000  Level Jacksonville Center
12:18PM 30.9364 -81.4078 10° North 389 448 41,000  Level Jacksonville Center
12:19PM 31.0428 -81.3917 North 389 448 41,000  Level Jacksonville Center
12:20PM 31.1489 -81.3756 North 389 448 41,000  Level Jacksonville Center
12:21PM 31.2553 -81.3542 10° North 389 448 41,000  Level Jacksonville Center
12:22PM 31.3572 -81.3356 North 384 442 41,000  Level Jacksonville Center
12:23PM 31.4761 -81.3164 North 384 442 41,000  Level Jacksonville Center
12:24PM 31.5719 -81.2978 North 390 449 41,000  Level Jacksonville Center
12:25PM 31.6886 -81.2811 North 385 443 41,000  Level Jacksonville Center
12:26PM 31.7969 -81.2597 10° North 385 443 41,000  Level Jacksonville Center
12:27PM 31.8928 -81.2458 North 385 443 41,000  Level Jacksonville Center
12:28PM 32.0011 -81.2267 North 390 449 41,000  Level Jacksonville Center
12:29PM 32.1072 -81.2075 North 385 443 41,000  Level Jacksonville Center
12:30PM 32.2089 -81.1567 23° Northeast 385 443 41,000  Level Jacksonville Center
12:31PM 32.3083 -81.0983 26° Northeast 391 450 41,000  Level Jacksonville Center
12:32PM 32.4078 -81.0397 26° Northeast 399 459 41,000  Level Jacksonville Center
12:33PM 32.5069 -80.9786 27° Northeast 399 459 41,000  Level Jacksonville Center
12:34PM 32.6064 -80.9222 26° Northeast 399 459 41,000  Level Jacksonville Center
12:35PM 32.7056 -80.8633 27° Northeast 399 459 41,000  Level Jacksonville Center
12:36PM 32.8069 -80.8017 27° Northeast 399 459 41,000  Level Jacksonville Center
12:37PM 32.9061 -80.7450 26° Northeast 399 459 41,000  Level Jacksonville Center
12:38PM 33.0053 -80.6881 26° Northeast 399 459 41,000 -60 Level Jacksonville Center
12:39PM 33.1067 -80.6286 26° Northeast 399 459 40,900 660 Descending Jacksonville Center
12:40PM 33.2139 -80.5661 26° Northeast 399 459 42,400 1,020 Climbing Jacksonville Center
12:41PM 33.3047 -80.5117 27° Northeast 378 435 43,000 300 Climbing Jacksonville Center
12:42PM 33.3956 -80.4544 28° Northeast 372 428 43,000  Level Jacksonville Center
12:43PM 33.4883 -80.3997 26° Northeast 367 422 43,000  Level Jacksonville Center
12:44PM 33.5853 -80.3397 27° Northeast 367 422 43,000  Level Jacksonville Center
12:45PM 33.6822 -80.2819 26° Northeast 373 429 43,000  Level Jacksonville Center
12:46PM 33.7831 -80.2214 27° Northeast 384 442 43,000  Level Jacksonville Center
12:47PM 33.8819 -80.1608 27° Northeast 384 442 43,000  Level Jacksonville Center
12:48PM 33.9789 -80.1028 26° Northeast 389 448 43,000  Level Jacksonville Center
12:49PM 34.0817 -80.0392 27° Northeast 389 448 43,000  Level Jacksonville Center
12:50PM 34.1803 -79.9783 27° Northeast 389 448 43,000  Level Jacksonville Center
12:52PM 34.3731 -79.8592 27° Northeast 402 463 43,000  Level Washington Center
12:53PM 34.4756 -79.7967 27° Northeast 402 463 43,000  Level Washington Center
12:54PM 34.5758 -79.7311 28° Northeast 407 468 43,000  Level Washington Center
12:55PM 34.6781 -79.6681 27° Northeast 407 468 43,000  Level Washington Center
12:56PM 34.7783 -79.6075 26° Northeast 402 463 43,000  Level Washington Center
12:57PM 34.8803 -79.5492 25° Northeast 402 463 43,000  Level Washington Center
12:58PM 34.9764 -79.4856 28° Northeast 397 457 43,000  Level Washington Center
12:59PM 35.0786 -79.4219 27° Northeast 397 457 43,000  Level Washington Center
01:00PM 35.1767 -79.3603 27° Northeast 397 457 43,000  Level Washington Center
01:01PM 35.2786 -79.2964 27° Northeast 397 457 43,000  Level Washington Center
01:02PM 35.3808 -79.2325 27° Northeast 404 465 43,000  Level Washington Center
01:03PM 35.4700 -79.1778 27° Northeast 398 458 43,000 -60 Level Washington Center
01:04PM 35.5842 -79.1344 17° North 388 447 42,900 -840 Descending Washington Center
01:05PM 35.6972 -79.1189 North 388 447 41,400 -1,500 Descending Washington Center
01:06PM 35.7978 -79.1031 North 388 447 40,000 -1,500 Descending Washington Center
01:07PM 35.8922 -79.0842 North 363 418 38,400 -1,680 Descending Washington Center
01:08PM 35.9931 -79.0628 10° North 356 410 36,700 -1,560 Descending Washington Center
01:09PM 36.0792 -79.0486 North 368 423 35,400 -1,500 Descending Washington Center
01:10PM 36.2028 -79.0283 North 388 447 33,800 -1,200 Descending Washington Center
01:11PM 36.3244 -79.0053 North 417 480 33,000 -420 Descending Washington Center
01:12PM 36.4461 -78.9822 North 435 501 33,000  Level Washington Center
01:13PM 36.5678 -78.9617 North 435 501 33,000 -300 Level Washington Center
01:14PM 36.6875 -78.9306 12° North 440 506 32,500 -1,440 Descending Washington Center
01:15PM 36.8222 -78.9572 351° North 440 506 30,200 -2,160 Descending Washington Center
01:16PM 36.9436 -78.9469 North 440 506 28,200 -1,620 Descending Washington Center
01:17PM 37.0592 -78.9156 12° North 430 495 27,000 -660 Descending Washington Center
01:18PM 37.1747 -78.8892 10° North 425 489 27,000  Level Washington Center
01:19PM 37.2817 -78.8650 10° North 425 489 27,000  Level Washington Center
01:20PM 37.3994 -78.8389 10° North 430 495 27,000  Level Washington Center
01:21PM 37.5169 -78.8122 10° North 430 495 27,000  Level Washington Center
01:22PM 37.6469 -78.7839 10° North 430 495 27,000  Level Washington Center
01:23PM 37.7644 -78.7597 North 425 489 27,000  Level Washington Center
01:24PM 37.8778 -78.7331 11° North 425 489 27,000  Level Washington Center
01:25PM 37.9847 -78.7086 10° North 420 483 27,000  Level Washington Center
01:26PM 38.1022 -78.6844 North 425 489 27,000 -240 Level Washington Center
01:27PM 38.2175 -78.6575 10° North 425 489 26,600 -900 Descending Washington Center
01:28PM 38.3475 -78.6283 10° North 425 489 25,200 -1,440 Descending Washington Center
01:29PM 38.4608 -78.6039 10° North 425 489 23,800 -1,500 Descending Washington Center
01:30PM 38.5700 -78.5764 11° North 414 476 22,300 -1,740 Descending Washington Center
01:31PM 38.6694 -78.5114 27° Northeast 399 459 20,400 -1,920 Descending Washington Center
01:32PM 38.7592 -78.4242 37° Northeast 389 448 18,500 -1,740 Descending Washington Center
01:33PM 38.8467 -78.3425 36° Northeast 395 455 16,900 -2,040 Descending Washington Center
01:34PM 38.9336 -78.2656 35° Northeast 385 443 14,600 -2,400 Descending Washington Center
01:35PM 39.0061 -78.1986 36° Northeast 379 436 12,200 -2,760 Descending Washington Center
01:36PM 39.0825 -78.1292 35° Northeast 353 406 9,100 -2,160 Descending Washington Center
01:37PM 39.1528 -78.0622 36° Northeast 330 380 7,900 -1,560 Descending Washington Center
01:38PM 39.2228 -77.9975 36° Northeast 319 367 6,000 -1,500 Descending Washington Center
01:39PM 39.2931 -77.9328 35° Northeast 314 361 5,000 -540 Descending Washington Center
01:40PM 39.3586 -77.8706 36° Northeast 303 349 5,000  Level Washington Center
01:41PM 39.4267 -77.8000 39° Northeast 283 326 5,000 -360 Level Washington Center
01:43PM 39.5333 -77.6500 47° Northeast 258 297 3,900 -660 Descending Potomac TRACON
01:44PM 39.5167 -77.5833 108° East 210 242 3,000 -600 Descending Potomac TRACON
01:45PM 39.4833 -77.5167 123° Southeast 209 241 2,800 -660 Descending Potomac TRACON
01:46PM 39.4500 -77.4500 123° Southeast 215 247 1,700 -780 Descending Potomac TRACON
01:47PM 39.4500 -77.3833 90° East 196 226 1,300 -480 Descending Potomac TRACON
01:48PM 39.4333 -77.3500 123° Southeast 180 207 800 -540 Descending Potomac TRACON
01:50PM 39.4176 -77.3743 75° East  Level Estimated
01:57PM 39.4167 -77.3667 256° West  Level FlightAware Approximate
01:58PM 39.4176 -77.3743 256° West  Level Estimated
01:59PM 39.4167 -77.3667 256° West  Level FlightAware Approximate